createdAt,value
2022-09-17T00:01:27.293Z,3.03
2022-09-17T00:04:04.743Z,3.10
2022-09-17T00:06:34.920Z,3.27
2022-09-17T00:09:05.003Z,3.43
2022-09-17T00:11:35.278Z,3.10
2022-09-17T00:14:04.849Z,3.20
2022-09-17T00:16:39.716Z,3.10
2022-09-17T00:19:10.576Z,3.23
2022-09-17T00:21:38.562Z,2.60
2022-09-17T00:24:07.125Z,3.30
2022-09-17T00:26:37.225Z,2.77
2022-09-17T00:29:05.814Z,3.40
2022-09-17T00:31:34.785Z,3.20
2022-09-17T00:34:03.876Z,3.37
2022-09-17T00:36:32.086Z,3.10
2022-09-17T00:39:00.173Z,3.43
2022-09-17T00:41:30.737Z,2.93
2022-09-17T00:44:01.738Z,3.30
2022-09-17T00:46:42.121Z,2.83
2022-09-17T00:49:20.585Z,2.60
2022-09-17T00:52:06.981Z,2.93
2022-09-17T00:54:38.820Z,3.83
2022-09-17T00:57:06.872Z,4.03
2022-09-17T00:59:34.712Z,3.37
2022-09-17T01:02:02.986Z,2.70
2022-09-17T01:04:30.732Z,3.10
2022-09-17T01:07:10.038Z,3.20
2022-09-17T01:09:57.231Z,3.27
2022-09-17T01:12:53.019Z,3.53
2022-09-17T01:15:35.332Z,2.83
2022-09-17T01:18:42.659Z,2.93
2022-09-17T01:21:38.618Z,2.10
2022-09-17T01:24:24.702Z,3.23
2022-09-17T01:27:17.968Z,2.90
2022-09-17T01:30:06.938Z,2.40
2022-09-17T01:32:51.979Z,3.13
2022-09-17T01:35:32.782Z,3.03
2022-09-17T01:38:00.632Z,2.87
2022-09-17T01:40:37.566Z,2.40
2022-09-17T01:43:12.014Z,2.90
2022-09-17T01:45:49.730Z,2.47
2022-09-17T01:48:22.989Z,2.80
2022-09-17T01:50:50.763Z,3.27
2022-09-17T01:53:22.831Z,3.13
2022-09-17T01:55:54.052Z,2.80
2022-09-17T01:58:33.451Z,3.37
2022-09-17T02:01:04.948Z,2.40
2022-09-17T02:03:49.754Z,2.40
2022-09-17T02:06:22.115Z,2.27
2022-09-17T02:08:55.247Z,2.77
2022-09-17T02:11:23.156Z,2.80
2022-09-17T02:13:58.864Z,2.77
2022-09-17T02:16:33.522Z,2.53
2022-09-17T02:19:12.913Z,2.97
2022-09-17T02:21:49.729Z,2.30
2022-09-17T02:24:20.294Z,2.03
2022-09-17T02:27:01.461Z,3.10
2022-09-17T02:29:38.302Z,2.40
2022-09-17T02:32:06.144Z,2.60
2022-09-17T02:34:34.892Z,2.20
2022-09-17T02:37:03.447Z,2.70
2022-09-17T02:39:31.286Z,2.50
2022-09-17T02:42:27.192Z,1.90
2022-09-17T02:45:06.249Z,2.23
2022-09-17T02:47:50.115Z,2.53
2022-09-17T02:50:42.740Z,2.63
2022-09-17T02:53:19.230Z,2.03
2022-09-17T02:55:53.003Z,2.10
2022-09-17T02:58:34.613Z,2.03
2022-09-17T03:01:07.970Z,2.00
2022-09-17T03:03:41.429Z,2.23
2022-09-17T03:06:08.720Z,2.37
2022-09-17T03:08:41.578Z,2.07
2022-09-17T03:11:11.197Z,2.20
2022-09-17T03:13:39.285Z,1.90
2022-09-17T03:16:07.532Z,1.97
2022-09-17T03:18:35.247Z,1.93
2022-09-17T03:21:02.598Z,1.97
2022-09-17T03:23:29.861Z,2.73
2022-09-17T03:25:57.908Z,1.67
2022-09-17T03:28:26.717Z,2.10
2022-09-17T03:30:54.753Z,1.80
2022-09-17T03:33:22.454Z,2.37
2022-09-17T03:35:49.924Z,2.20
2022-09-17T03:38:17.617Z,1.80
2022-09-17T03:40:45.291Z,2.27
2022-09-17T03:43:12.534Z,1.97
2022-09-17T03:45:39.837Z,2.27
2022-09-17T03:48:07.399Z,1.70
2022-09-17T03:50:34.703Z,1.90
2022-09-17T03:53:01.929Z,1.83
2022-09-17T03:55:29.345Z,1.77
2022-09-17T03:57:56.767Z,2.30
2022-09-17T04:00:25.256Z,2.33
2022-09-17T04:02:52.904Z,2.07
2022-09-17T04:05:20.321Z,2.17
2022-09-17T04:07:47.589Z,1.40
2022-09-17T04:10:15.568Z,1.70
2022-09-17T04:12:43.081Z,1.73
2022-09-17T04:15:10.898Z,1.53
2022-09-17T04:17:38.501Z,1.90
2022-09-17T04:20:06.892Z,2.03
2022-09-17T04:22:34.505Z,1.73
2022-09-17T04:25:02.089Z,2.13
2022-09-17T04:27:29.473Z,2.37
2022-09-17T04:29:56.752Z,1.90
2022-09-17T04:32:24.309Z,1.90
2022-09-17T04:34:51.683Z,2.23
2022-09-17T04:37:20.028Z,1.87
2022-09-17T04:39:47.674Z,1.57
2022-09-17T04:42:16.041Z,2.10
2022-09-17T04:44:43.421Z,1.90
2022-09-17T04:47:10.936Z,2.93
2022-09-17T04:49:38.459Z,2.40
2022-09-17T04:52:05.749Z,2.33
2022-09-17T04:54:33.323Z,2.00
2022-09-17T04:57:03.440Z,2.27
2022-09-17T04:59:31.203Z,1.67
2022-09-17T05:01:58.666Z,1.70
2022-09-17T05:04:26.101Z,1.70
2022-09-17T05:06:54.075Z,2.57
2022-09-17T05:09:21.581Z,1.90
2022-09-17T05:11:48.866Z,2.00
2022-09-17T05:14:16.569Z,1.50
2022-09-17T05:16:45.106Z,1.73
2022-09-17T05:19:12.525Z,1.63
2022-09-17T05:21:39.744Z,2.03
2022-09-17T05:24:07.453Z,2.00
2022-09-17T05:26:35.039Z,1.80
2022-09-17T05:29:02.330Z,1.50
2022-09-17T05:31:30.020Z,2.27
2022-09-17T05:33:58.993Z,2.07
2022-09-17T05:36:26.844Z,1.83
2022-09-17T05:38:54.996Z,1.53
2022-09-17T05:41:22.261Z,1.67
2022-09-17T05:43:49.703Z,1.87
2022-09-17T05:46:26.107Z,1.57
2022-09-17T05:48:57.411Z,1.37
2022-09-17T05:51:25.422Z,1.30
2022-09-17T05:53:55.231Z,1.40
2022-09-17T05:56:24.146Z,1.80
2022-09-17T05:58:55.901Z,1.47
2022-09-17T06:01:24.172Z,1.80
2022-09-17T06:03:51.804Z,1.97
2022-09-17T06:06:20.205Z,1.50
2022-09-17T06:08:47.630Z,1.60
2022-09-17T06:11:15.191Z,1.67
2022-09-17T06:13:43.907Z,1.07
2022-09-17T06:16:11.159Z,1.47
2022-09-17T06:18:38.589Z,1.10
2022-09-17T06:21:06.189Z,1.40
2022-09-17T06:23:37.384Z,1.70
2022-09-17T06:26:06.153Z,1.07
2022-09-17T06:28:37.892Z,1.83
2022-09-17T06:31:09.926Z,2.30
2022-09-17T06:33:37.566Z,1.33
2022-09-17T06:36:14.623Z,1.00
2022-09-17T06:38:43.477Z,1.23
2022-09-17T06:41:12.641Z,1.30
2022-09-17T06:43:41.109Z,1.20
2022-09-17T06:46:10.684Z,1.00
2022-09-17T06:48:39.000Z,1.30
2022-09-17T06:51:08.889Z,1.90
2022-09-17T06:53:38.310Z,1.70
2022-09-17T06:56:07.613Z,1.83
2022-09-17T06:58:40.341Z,1.40
2022-09-17T07:01:13.933Z,1.30
2022-09-17T07:03:46.888Z,2.03
2022-09-17T07:06:16.228Z,1.53
2022-09-17T07:08:44.210Z,2.00
2022-09-17T07:11:11.699Z,6.30
2022-09-17T07:13:39.438Z,1.67
2022-09-17T07:16:07.275Z,2.30
2022-09-17T07:18:35.749Z,2.23
2022-09-17T07:21:08.781Z,1.70
2022-09-17T07:23:38.228Z,2.20
2022-09-17T07:26:10.870Z,2.27
2022-09-17T07:28:40.485Z,2.30
2022-09-17T07:31:15.270Z,2.00
2022-09-17T07:33:46.216Z,2.40
2022-09-17T07:36:28.856Z,2.47
2022-09-17T07:38:56.574Z,2.70
2022-09-17T07:41:24.369Z,2.20
2022-09-17T07:43:54.344Z,2.27
2022-09-17T07:46:27.605Z,3.43
2022-09-17T07:48:55.143Z,2.63
2022-09-17T07:51:28.001Z,2.37
2022-09-17T07:53:58.315Z,2.00
2022-09-17T07:56:27.547Z,2.43
2022-09-17T07:58:55.281Z,2.37
2022-09-17T08:01:23.106Z,2.23
2022-09-17T08:03:52.847Z,2.73
2022-09-17T08:06:28.786Z,2.33
2022-09-17T08:08:58.313Z,2.60
2022-09-17T08:14:18.621Z,3.13
2022-09-17T08:16:48.321Z,3.17
2022-09-17T08:19:15.971Z,2.90
2022-09-17T08:21:43.903Z,3.73
2022-09-17T08:24:11.434Z,3.40
2022-09-17T08:26:40.690Z,3.13
2022-09-17T08:29:08.779Z,3.10
2022-09-17T08:31:36.492Z,3.57
2022-09-17T08:34:09.194Z,2.70
2022-09-17T08:36:37.632Z,3.40
2022-09-17T08:39:05.806Z,2.80
2022-09-17T08:41:51.754Z,2.80
2022-09-17T08:44:39.481Z,2.93
2022-09-17T08:47:25.107Z,2.53
2022-09-17T08:50:03.598Z,2.77
2022-09-17T08:52:47.841Z,3.73
2022-09-17T08:55:26.661Z,3.20
2022-09-17T08:58:10.747Z,3.70
2022-09-17T09:01:03.713Z,2.70
2022-09-17T09:03:52.492Z,2.90
2022-09-17T09:06:31.863Z,2.93
2022-09-17T09:09:09.190Z,2.43
2022-09-17T09:11:38.600Z,3.10
2022-09-17T09:14:33.072Z,3.17
2022-09-17T09:17:06.597Z,2.90
2022-09-17T09:19:46.969Z,3.67
2022-09-17T09:22:24.107Z,2.47
2022-09-17T09:25:32.501Z,2.90
2022-09-17T09:28:21.441Z,3.23
2022-09-17T09:31:09.632Z,2.83
2022-09-17T09:33:47.058Z,2.13
2022-09-17T09:36:16.973Z,2.20
2022-09-17T09:39:04.598Z,2.50
2022-09-17T09:41:47.477Z,2.03
2022-09-17T09:44:17.159Z,2.50
2022-09-17T09:47:19.462Z,3.03
2022-09-17T09:49:56.505Z,2.03
2022-09-17T09:52:51.704Z,1.73
2022-09-17T09:55:26.520Z,2.07
2022-09-17T09:58:03.575Z,2.50
2022-09-17T10:00:45.207Z,3.20
2022-09-17T10:03:20.723Z,3.73
2022-09-17T10:06:04.984Z,2.67
2022-09-17T10:08:37.458Z,1.90
2022-09-17T10:11:10.832Z,1.63
2022-09-17T10:13:41.483Z,1.90
2022-09-17T10:16:25.449Z,2.28
2022-09-17T10:19:08.127Z,2.30
2022-09-17T10:21:40.004Z,1.98
2022-09-17T10:24:29.065Z,2.30
2022-09-17T10:27:04.058Z,1.92
2022-09-17T10:29:31.896Z,1.95
2022-09-17T10:31:59.836Z,1.73
2022-09-17T10:34:29.947Z,2.03
2022-09-17T10:36:58.649Z,1.88
2022-09-17T10:39:29.142Z,1.88
2022-09-17T10:42:04.126Z,2.45
2022-09-17T10:44:34.423Z,2.67
2022-09-17T10:47:29.816Z,2.43
2022-09-17T10:50:01.562Z,1.87
2022-09-17T10:52:44.222Z,2.43
2022-09-17T10:55:30.757Z,2.00
2022-09-17T10:58:10.019Z,2.30
2022-09-17T11:01:23.517Z,2.00
2022-09-17T11:04:05.353Z,2.70
2022-09-17T11:06:45.201Z,1.63
2022-09-17T11:09:12.591Z,1.80
2022-09-17T11:12:11.703Z,2.10
2022-09-17T11:14:53.930Z,1.85
2022-09-17T11:17:50.264Z,1.38
2022-09-17T11:20:42.542Z,1.60
2022-09-17T11:23:43.912Z,1.30
2022-09-17T11:26:45.142Z,1.20
2022-09-17T11:29:41.263Z,1.42
2022-09-17T11:32:33.527Z,1.30
2022-09-17T11:35:19.362Z,1.45
2022-09-17T11:38:02.153Z,1.13
2022-09-17T11:40:38.654Z,4.32
2022-09-17T11:43:23.180Z,1.35
2022-09-17T11:46:25.921Z,1.55
2022-09-17T11:49:03.252Z,1.20
2022-09-17T11:51:43.758Z,1.02
2022-09-17T11:54:37.898Z,1.40
2022-09-17T11:57:17.461Z,1.10
2022-09-17T12:00:00.051Z,0.90
2022-09-17T12:02:53.634Z,0.95
2022-09-17T12:05:23.504Z,0.63
2022-09-17T12:08:14.945Z,1.10
2022-09-17T12:11:20.473Z,2.58
2022-09-17T12:14:17.937Z,1.23
2022-09-17T12:16:49.881Z,0.60
2022-09-17T12:19:21.593Z,1.33
2022-09-17T12:21:54.455Z,0.57
2022-09-17T12:24:50.246Z,0.90
2022-09-17T12:27:49.556Z,0.70
2022-09-17T12:30:23.073Z,0.57
2022-09-17T12:33:28.318Z,6.38
2022-09-17T12:36:15.000Z,1.08
2022-09-17T12:38:54.527Z,1.00
2022-09-17T12:41:53.828Z,1.05
2022-09-17T12:44:46.438Z,1.02
2022-09-17T12:47:29.316Z,0.70
2022-09-17T12:50:16.154Z,0.75
2022-09-17T12:53:15.134Z,0.70
2022-09-17T12:56:06.824Z,1.20
2022-09-17T12:58:41.192Z,0.70
2022-09-17T13:01:35.013Z,3.28
2022-09-17T13:04:59.501Z,0.80
2022-09-17T13:07:34.669Z,1.20
2022-09-17T13:10:15.024Z,1.00
2022-09-17T13:13:28.585Z,0.60
2022-09-17T13:16:14.362Z,0.77
2022-09-17T13:19:15.405Z,0.70
2022-09-17T13:22:01.159Z,0.55
2022-09-17T13:24:31.456Z,1.27
2022-09-17T13:27:02.456Z,1.42
2022-09-17T13:29:46.687Z,1.00
2022-09-17T13:32:32.827Z,1.13
2022-09-17T13:35:10.621Z,1.60
2022-09-17T13:37:56.671Z,0.90
2022-09-17T13:40:33.313Z,1.42
2022-09-17T13:43:04.470Z,1.77
2022-09-17T13:45:59.757Z,0.90
2022-09-17T13:48:36.493Z,1.20
2022-09-17T13:51:32.343Z,1.25
2022-09-17T13:54:04.195Z,0.85
2022-09-17T13:56:46.255Z,1.00
2022-09-17T13:59:17.032Z,0.70
2022-09-17T14:02:02.978Z,1.13
2022-09-17T14:04:42.987Z,0.77
2022-09-17T14:07:29.019Z,0.60
2022-09-17T14:10:16.060Z,0.93
2022-09-17T14:12:53.006Z,1.00
2022-09-17T14:15:40.063Z,0.88
2022-09-17T14:18:29.642Z,0.70
2022-09-17T14:21:09.856Z,2.28
2022-09-17T14:23:44.974Z,1.52
2022-09-17T14:26:26.303Z,1.80
2022-09-17T14:29:13.639Z,1.58
2022-09-17T14:31:41.711Z,1.08
2022-09-17T14:34:22.701Z,1.30
2022-09-17T14:36:52.722Z,1.30
2022-09-17T14:39:23.476Z,2.33
2022-09-17T14:41:53.510Z,2.53
2022-09-17T14:44:24.520Z,1.77
2022-09-17T14:46:51.817Z,1.65
2022-09-17T14:49:27.471Z,1.40
2022-09-17T14:51:56.870Z,1.77
2022-09-17T14:54:28.255Z,1.88
2022-09-17T14:57:03.502Z,1.67
2022-09-17T14:59:42.171Z,1.75
2022-09-17T15:02:33.970Z,1.77
2022-09-17T15:05:16.099Z,2.92
2022-09-17T15:07:45.230Z,2.63
2022-09-17T15:10:21.713Z,2.20
2022-09-17T15:12:50.966Z,4.60
2022-09-17T15:15:24.892Z,2.03
2022-09-17T15:17:54.098Z,1.70
2022-09-17T15:20:28.943Z,2.28
2022-09-17T15:23:29.204Z,6.10
2022-09-17T15:25:58.697Z,8.90
2022-09-17T15:28:41.809Z,6.18
2022-09-17T15:31:17.976Z,6.72
2022-09-17T15:33:47.220Z,2.80
2022-09-17T15:36:27.005Z,2.70
2022-09-17T15:38:55.735Z,4.07
2022-09-17T15:41:30.661Z,2.38
2022-09-17T15:44:30.769Z,1.52
2022-09-17T15:47:36.923Z,1.30
2022-09-17T15:50:15.853Z,1.02
2022-09-17T15:52:43.827Z,1.75
2022-09-17T15:55:31.308Z,2.07
2022-09-17T15:58:00.466Z,2.10
2022-09-17T16:00:28.186Z,1.33
2022-09-17T16:02:56.069Z,1.00
2022-09-17T16:05:27.789Z,1.43
2022-09-17T16:07:55.235Z,2.00
2022-09-17T16:10:22.672Z,1.87
2022-09-17T16:12:50.687Z,1.70
2022-09-17T16:15:19.138Z,2.37
2022-09-17T16:17:47.596Z,2.37
2022-09-17T16:20:23.905Z,3.80
2022-09-17T16:22:53.563Z,4.83
2022-09-17T16:25:30.582Z,3.33
2022-09-17T16:28:02.435Z,3.83
2022-09-17T16:30:30.183Z,5.50
2022-09-17T16:32:58.691Z,4.20
2022-09-17T16:35:26.749Z,4.37
2022-09-17T16:37:56.091Z,3.47
2022-09-17T16:40:25.396Z,2.70
2022-09-17T16:42:53.537Z,1.90
2022-09-17T16:45:23.453Z,1.70
2022-09-17T16:47:54.778Z,2.30
2022-09-17T16:50:22.653Z,2.00
2022-09-17T16:52:50.462Z,2.37
2022-09-17T16:55:18.861Z,2.70
2022-09-17T16:57:46.871Z,2.53
2022-09-17T17:00:17.458Z,3.43
2022-09-17T17:02:45.667Z,4.93
2022-09-17T17:05:13.675Z,5.07
2022-09-17T17:07:41.554Z,4.90
2022-09-17T17:10:10.263Z,4.53
2022-09-17T17:12:38.759Z,2.77
2022-09-17T17:15:06.915Z,3.03
2022-09-17T17:17:36.215Z,2.50
2022-09-17T17:20:10.951Z,1.70
2022-09-17T17:22:44.367Z,2.40
2022-09-17T17:25:14.621Z,2.00
2022-09-17T17:27:44.973Z,3.60
2022-09-17T17:30:17.792Z,2.60
2022-09-17T17:32:50.821Z,1.93
2022-09-17T17:35:19.987Z,1.70
2022-09-17T17:37:48.921Z,2.30
2022-09-17T17:40:17.204Z,4.10
2022-09-17T17:42:47.828Z,3.10
2022-09-17T17:45:16.917Z,2.33
2022-09-17T17:47:45.578Z,2.43
2022-09-17T17:50:16.839Z,2.07
2022-09-17T17:52:48.274Z,1.70
2022-09-17T17:55:18.386Z,1.80
2022-09-17T17:58:01.417Z,2.10
2022-09-17T18:00:30.658Z,2.37
2022-09-17T18:02:59.924Z,2.17
2022-09-17T18:05:29.982Z,1.90
2022-09-17T18:07:59.029Z,1.70
2022-09-17T18:10:28.443Z,1.90
2022-09-17T18:12:57.501Z,1.93
2022-09-17T18:15:27.501Z,2.30
2022-09-17T18:18:00.241Z,2.80
2022-09-17T18:20:28.768Z,2.23
2022-09-17T18:22:59.031Z,3.07
2022-09-17T18:25:28.960Z,3.63
2022-09-17T18:27:57.664Z,5.10
2022-09-17T18:30:26.737Z,5.47
2022-09-17T18:32:55.406Z,4.70
2022-09-17T18:35:25.549Z,3.03
2022-09-17T18:37:54.544Z,2.87
2022-09-17T18:40:22.919Z,2.33
2022-09-17T18:42:51.041Z,2.50
2022-09-17T18:45:19.437Z,2.83
2022-09-17T18:47:47.371Z,3.40
2022-09-17T18:50:15.246Z,4.43
2022-09-17T18:52:43.673Z,4.00
2022-09-17T18:55:11.721Z,3.50
2022-09-17T18:57:39.745Z,3.20
2022-09-17T19:00:09.947Z,3.43
2022-09-17T19:02:39.614Z,5.13
2022-09-17T19:05:07.933Z,5.57
2022-09-17T19:07:36.762Z,5.13
2022-09-17T19:10:05.740Z,4.97
2022-09-17T19:12:33.923Z,4.33
2022-09-17T19:15:02.221Z,4.03
2022-09-17T19:17:30.398Z,3.67
2022-09-17T19:19:58.504Z,3.13
2022-09-17T19:22:27.368Z,4.10
2022-09-17T19:24:55.420Z,2.90
2022-09-17T19:27:23.632Z,3.03
2022-09-17T19:29:51.959Z,2.73
2022-09-17T19:32:20.350Z,3.77
2022-09-17T19:34:48.560Z,4.20
2022-09-17T19:37:18.403Z,4.27
2022-09-17T19:39:46.503Z,3.73
2022-09-17T19:42:15.595Z,4.00
2022-09-17T19:44:44.783Z,4.23
2022-09-17T19:47:12.846Z,4.17
2022-09-17T19:49:41.819Z,3.87
2022-09-17T19:52:10.323Z,3.40
2022-09-17T19:54:38.827Z,3.90
2022-09-17T19:57:07.117Z,3.20
2022-09-17T19:59:37.592Z,3.47
2022-09-17T20:02:05.837Z,3.63
2022-09-17T20:04:34.467Z,3.60
2022-09-17T20:07:05.249Z,4.33
2022-09-17T20:09:34.096Z,4.07
2022-09-17T20:12:02.625Z,3.93
2022-09-17T20:14:30.955Z,4.03
2022-09-17T20:16:58.836Z,4.20
2022-09-17T20:19:26.976Z,3.97
2022-09-17T20:21:55.523Z,3.87
2022-09-17T20:24:24.522Z,4.03
2022-09-17T20:26:52.843Z,4.27
2022-09-17T20:29:21.791Z,4.63
2022-09-17T20:31:50.258Z,3.53
2022-09-17T20:34:18.021Z,3.77
2022-09-17T20:36:47.394Z,4.00
2022-09-17T20:39:22.223Z,4.13
2022-09-17T20:41:51.874Z,3.67
2022-09-17T20:44:21.342Z,4.07
2022-09-17T20:46:51.325Z,4.20
2022-09-17T20:49:20.445Z,3.73
2022-09-17T20:51:48.667Z,3.73
2022-09-17T20:54:17.030Z,3.80
2022-09-17T20:56:45.446Z,3.73
2022-09-17T20:59:15.821Z,3.80
2022-09-17T21:01:45.780Z,3.07
2022-09-17T21:04:17.188Z,4.03
2022-09-17T21:06:45.500Z,4.43
2022-09-17T21:09:17.523Z,4.03
2022-09-17T21:11:46.778Z,4.47
2022-09-17T21:14:19.181Z,4.23
2022-09-17T21:16:47.402Z,4.63
2022-09-17T21:19:16.863Z,4.50
2022-09-17T21:21:51.950Z,4.90
2022-09-17T21:24:20.411Z,5.50
2022-09-17T21:26:48.321Z,5.83
2022-09-17T21:29:17.952Z,5.03
2022-09-17T21:31:49.984Z,5.00
2022-09-17T21:34:20.378Z,4.87
2022-09-17T21:36:49.278Z,4.73
2022-09-17T21:39:18.335Z,4.80
2022-09-17T21:41:48.163Z,5.53
2022-09-17T21:44:16.910Z,5.80
2022-09-17T21:46:45.017Z,5.10
2022-09-17T21:49:13.699Z,5.10
2022-09-17T21:51:42.805Z,4.80
2022-09-17T21:54:12.794Z,4.63
2022-09-17T21:56:40.669Z,4.10
2022-09-17T21:59:11.717Z,4.63
2022-09-17T22:01:47.898Z,4.10
2022-09-17T22:04:19.212Z,4.30
2022-09-17T22:06:49.429Z,4.67
2022-09-17T22:09:23.487Z,5.47
2022-09-17T22:11:53.267Z,4.07
2022-09-17T22:14:23.755Z,5.47
2022-09-17T22:16:54.908Z,6.50
2022-09-17T22:19:24.348Z,4.47
2022-09-17T22:21:54.631Z,5.03
2022-09-17T22:24:23.225Z,3.37
2022-09-17T22:26:56.897Z,4.33
2022-09-17T22:29:27.207Z,3.00
2022-09-17T22:31:55.098Z,4.23
2022-09-17T22:34:23.816Z,3.63
2022-09-17T22:36:52.700Z,4.10
2022-09-17T22:39:23.670Z,3.90
2022-09-17T22:41:51.342Z,3.20
2022-09-17T22:44:20.143Z,4.07
2022-09-17T22:46:50.389Z,3.87
2022-09-17T22:49:19.549Z,3.13
2022-09-17T22:51:47.640Z,3.60
2022-09-17T22:54:17.579Z,4.37
2022-09-17T22:56:46.515Z,4.17
2022-09-17T22:59:13.922Z,2.90
2022-09-17T23:01:42.248Z,3.03
2022-09-17T23:04:10.391Z,3.20
2022-09-17T23:06:40.023Z,3.23
2022-09-17T23:09:08.670Z,2.60
2022-09-17T23:11:39.242Z,2.70
2022-09-17T23:14:11.464Z,3.00
2022-09-17T23:16:46.744Z,2.90
2022-09-17T23:19:18.478Z,2.50
2022-09-17T23:21:46.965Z,2.77
2022-09-17T23:24:20.466Z,2.90
2022-09-17T23:26:49.631Z,3.00
2022-09-17T23:29:18.735Z,3.57
2022-09-17T23:31:46.077Z,3.13
2022-09-17T23:34:13.576Z,2.93
2022-09-17T23:36:40.938Z,3.27
2022-09-17T23:39:09.426Z,3.97
2022-09-17T23:41:40.746Z,4.30
2022-09-17T23:44:14.782Z,3.50
2022-09-17T23:46:44.847Z,4.77
2022-09-17T23:49:13.764Z,5.00
2022-09-17T23:51:41.450Z,4.57
2022-09-17T23:54:09.785Z,5.43
2022-09-17T23:56:37.438Z,3.63
2022-09-17T23:59:05.204Z,4.13
